Seguin, TX

5:15 PM CDT on August 20, 2014 (GMT -0500)
San Marcos Municipal | Change Station
CLOSE
Current Station
Airport
Location: San Marcos,
Elevation: 597 ft
Nearby Weather Stations

Elev 597 ft 29.90 °N, 97.87 °W | Updated 25 minutes ago

Partly Cloudy
Partly Cloudy
100 °F
Feels Like 104 °F
N
16
Wind Variable Wind from SSE
Gusts 21 mph

Today
High -- | Low -- °F
--% Chance of Precip.
Yesterday
High -- | Low -- °F
Precip. -- in
7:02 AM 8:07 PM
Waning Crescent, 19% visible
Pressure 29.88 in
Visibility 10.0 miles
Clouds Few 8000 ft
Heat Index 104 °F
Dew Point 64 °F
Humidity 31%
Rainfall 0.00 in
Snow Depth Not available.
UV 5 out of 12
Pollen 7.80 out of 12
Ozone Good
PM2.5 Moderate
Flu Activity Not available.
METAR KHYI 202150Z 15014G18KT 10SM FEW080 38/18 A2988

More Conditions Fewer Conditions

Pressure 29.88 in
Visibility 10.0 miles
Clouds Few 8000 ft
Heat Index 104 °F
Dew Point 64 °F
Humidity 31%
Rainfall 0.00 in
Snow Depth Not available.
UV 5 out of 12
Pollen 7.80 out of 12
Ozone Good
PM2.5 Moderate
Flu Activity Not available.
METAR KHYI 202150Z 15014G18KT 10SM FEW080 38/18 A2988

More Conditions Fewer Conditions

Nowcast | as of 5:00 PM CDT on August 20, 2014

Through 7 PM...isolated showers and thunderstorms will move north across the coastal plains and portions of the Interstate 35 corridor. Rainfall amounts will be light with most locations receiving one tenth of an inch or less. In the stronger storms rainfall amounts could reach one half inch.

×

10-Day Weather Forecast

Almanac

Astronomy

Aug. 20, 2014 Rise Set
Actual Time 7:02 AM CDT 8:07 PM CDT
Civil Twilight 6:37 AM CDT 8:31 PM CDT
Nautical Twilight 6:08 AM CDT 9:01 PM CDT
Astronomical Twilight 5:38 AM CDT 9:31 PM CDT
Moon 2:51 AM CDT 4:45 PM CDT
Length of Visible Light 13h 54m
Length of Day
13h 04m
Tomorrow will be 1m 37s shorter.
Waning Crescent, 19% of the Moon is Illuminated
Today
Waning Crescent
Aug 25
New
Sep 2
First Quarter
Sep 8
Full
Sep 15
Last Quarter

Today's Extremes

State Highs State Lows

Community

WunderPhotos

Upload Photos

1,745,773 photos uploaded!

Nearby

Air Quality

  Air Quality AQ Index Pollutant
Yesterday Moderate
PM2.5
Yesterday Good
OZONE
Current Moderate
PM2.5
Current Good
OZONE
Wednesday Good
PM10
Wednesday Good
OZONE
Thursday Good
PM10
Thursday Good
OZONE
Friday Good
PM10
Friday Good
OZONE
Saturday Good
PM10
Saturday Good
OZONE

Snow Depth

Station Depth Elevation
No new snow has been reported.

Earthquake Activity

City Distance Mag. Time & Date
No recent earthquake activity has been reported nearby.
Minimum magnitude displayed is 2.5.

Coastal Water Temperatures

Place Temperature
No Stations Reporting

Nearby Weather Stations